sensor_id;sensor_type;location;lat;lon;timestamp;pressure;altitude;pressure_sealevel;temperature;humidity
19845;BME280;10083;51.038;7.012;2023-05-23T00:00:01;107969.50;;;18.47;100.00
19845;BME280;10083;51.038;7.012;2023-05-23T00:02:39;108065.81;;;18.37;100.00
19845;BME280;10083;51.038;7.012;2023-05-23T00:05:07;108143.94;;;18.27;100.00
19845;BME280;10083;51.038;7.012;2023-05-23T00:07:34;108183.31;;;18.05;100.00
19845;BME280;10083;51.038;7.012;2023-05-23T00:10:03;108294.94;;;17.97;100.00
19845;BME280;10083;51.038;7.012;2023-05-23T00:12:30;108408.16;;;17.98;100.00
19845;BME280;10083;51.038;7.012;2023-05-23T00:14:58;108496.28;;;17.90;100.00
19845;BME280;10083;51.038;7.012;2023-05-23T00:17:25;108563.28;;;17.78;100.00
19845;BME280;10083;51.038;7.012;2023-05-23T00:19:55;108657.00;;;17.73;100.00
19845;BME280;10083;51.038;7.012;2023-05-23T00:22:22;108752.47;;;17.79;100.00
19845;BME280;10083;51.038;7.012;2023-05-23T00:24:52;108815.84;;;17.68;100.00
19845;BME280;10083;51.038;7.012;2023-05-23T00:27:22;108850.16;;;17.55;100.00
19845;BME280;10083;51.038;7.012;2023-05-23T00:30:05;109039.38;;;17.80;100.00
19845;BME280;10083;51.038;7.012;2023-05-23T00:32:32;109119.78;;;17.78;100.00
19845;BME280;10083;51.038;7.012;2023-05-23T00:35:01;109138.78;;;17.78;100.00
19845;BME280;10083;51.038;7.012;2023-05-23T00:37:28;109164.94;;;17.66;100.00
19845;BME280;10083;51.038;7.012;2023-05-23T00:39:57;109267.97;;;17.86;100.00
19845;BME280;10083;51.038;7.012;2023-05-23T00:42:25;109253.19;;;17.82;100.00
19845;BME280;10083;51.038;7.012;2023-05-23T00:44:57;109267.25;;;17.88;100.00
19845;BME280;10083;51.038;7.012;2023-05-23T00:47:23;109255.28;;;17.96;100.00
19845;BME280;10083;51.038;7.012;2023-05-23T00:50:00;109208.72;;;17.92;100.00
19845;BME280;10083;51.038;7.012;2023-05-23T00:52:27;109221.16;;;18.00;100.00
19845;BME280;10083;51.038;7.012;2023-05-23T00:54:55;109168.38;;;17.96;100.00
19845;BME280;10083;51.038;7.012;2023-05-23T00:57:22;109129.50;;;17.97;100.00
19845;BME280;10083;51.038;7.012;2023-05-23T01:00:00;109087.81;;;17.97;100.00
19845;BME280;10083;51.038;7.012;2023-05-23T01:02:31;109000.50;;;18.14;100.00
19845;BME280;10083;51.038;7.012;2023-05-23T01:05:04;108814.63;;;17.99;100.00
19845;BME280;10083;51.038;7.012;2023-05-23T01:07:32;108751.34;;;18.00;100.00
19845;BME280;10083;51.038;7.012;2023-05-23T01:10:15;108703.09;;;18.21;100.00
19845;BME280;10083;51.038;7.012;2023-05-23T01:12:50;108570.06;;;18.09;100.00
19845;BME280;10083;51.038;7.012;2023-05-23T01:15:24;108424.38;;;17.96;100.00
19845;BME280;10083;51.038;7.012;2023-05-23T01:18:01;108409.72;;;17.94;100.00
19845;BME280;10083;51.038;7.012;2023-05-23T01:20:39;108410.34;;;18.03;100.00
19845;BME280;10083;51.038;7.012;2023-05-23T01:23:26;108327.75;;;18.00;100.00
19845;BME280;10083;51.038;7.012;2023-05-23T01:26:03;108215.44;;;18.13;100.00
19845;BME280;10083;51.038;7.012;2023-05-23T01:28:53;108075.31;;;18.01;100.00
19845;BME280;10083;51.038;7.012;2023-05-23T01:31:28;107967.59;;;18.00;100.00
19845;BME280;10083;51.038;7.012;2023-05-23T01:33:56;107918.22;;;18.07;100.00
19845;BME280;10083;51.038;7.012;2023-05-23T01:36:26;107834.19;;;17.80;100.00
19845;BME280;10083;51.038;7.012;2023-05-23T01:38:53;107870.66;;;18.14;100.00
19845;BME280;10083;51.038;7.012;2023-05-23T01:41:21;107757.22;;;17.94;100.00
19845;BME280;10083;51.038;7.012;2023-05-23T01:43:50;107560.06;;;17.63;100.00
19845;BME280;10083;51.038;7.012;2023-05-23T01:46:19;107524.31;;;17.87;100.00
19845;BME280;10083;51.038;7.012;2023-05-23T01:48:47;107364.13;;;17.69;100.00
19845;BME280;10083;51.038;7.012;2023-05-23T01:51:14;107209.09;;;17.61;100.00
19845;BME280;10083;51.038;7.012;2023-05-23T01:53:42;107094.38;;;17.64;100.00
19845;BME280;10083;51.038;7.012;2023-05-23T01:56:09;106996.53;;;17.79;100.00
19845;BME280;10083;51.038;7.012;2023-05-23T01:58:36;106852.31;;;17.90;100.00
19845;BME280;10083;51.038;7.012;2023-05-23T02:01:11;106645.31;;;17.51;100.00
19845;BME280;10083;51.038;7.012;2023-05-23T02:03:38;106599.84;;;17.87;100.00
19845;BME280;10083;51.038;7.012;2023-05-23T02:06:11;106481.69;;;17.73;100.00
19845;BME280;10083;51.038;7.012;2023-05-23T02:08:38;106385.88;;;17.74;100.00
19845;BME280;10083;51.038;7.012;2023-05-23T02:11:24;106299.16;;;17.77;100.00
19845;BME280;10083;51.038;7.012;2023-05-23T02:13:51;106257.09;;;17.90;100.00
19845;BME280;10083;51.038;7.012;2023-05-23T02:16:20;106191.28;;;17.69;100.00
19845;BME280;10083;51.038;7.012;2023-05-23T02:18:49;106219.81;;;17.84;100.00
19845;BME280;10083;51.038;7.012;2023-05-23T02:21:17;106220.41;;;17.74;100.00
19845;BME280;10083;51.038;7.012;2023-05-23T02:24:08;106230.78;;;17.60;100.00
19845;BME280;10083;51.038;7.012;2023-05-23T02:26:36;106262.13;;;17.78;100.00
19845;BME280;10083;51.038;7.012;2023-05-23T02:29:03;106265.16;;;17.87;100.00
19845;BME280;10083;51.038;7.012;2023-05-23T02:31:31;106241.88;;;17.68;100.00
19845;BME280;10083;51.038;7.012;2023-05-23T02:33:58;106265.16;;;17.87;100.00
19845;BME280;10083;51.038;7.012;2023-05-23T02:36:25;106229.03;;;17.88;100.00
19845;BME280;10083;51.038;7.012;2023-05-23T02:38:56;106189.53;;;17.71;100.00
19845;BME280;10083;51.038;7.012;2023-05-23T02:41:23;106229.66;;;17.81;100.00
19845;BME280;10083;51.038;7.012;2023-05-23T02:43:51;106218.38;;;17.69;100.00
19845;BME280;10083;51.038;7.012;2023-05-23T02:46:19;106267.31;;;17.72;100.00
19845;BME280;10083;51.038;7.012;2023-05-23T02:48:52;106266.88;;;17.85;100.00
19845;BME280;10083;51.038;7.012;2023-05-23T02:51:19;106278.63;;;17.84;100.00
19845;BME280;10083;51.038;7.012;2023-05-23T02:53:51;106307.22;;;17.74;100.00
19845;BME280;10083;51.038;7.012;2023-05-23T02:56:19;106359.50;;;17.70;100.00
19845;BME280;10083;51.038;7.012;2023-05-23T02:58:51;106412.84;;;17.70;100.00
19845;BME280;10083;51.038;7.012;2023-05-23T03:01:18;106421.47;;;17.37;100.00
19845;BME280;10083;51.038;7.012;2023-05-23T03:04:00;106564.03;;;17.53;100.00
19845;BME280;10083;51.038;7.012;2023-05-23T03:06:27;106610.16;;;17.75;100.00
19845;BME280;10083;51.038;7.012;2023-05-23T03:08:59;106585.34;;;17.44;100.00
19845;BME280;10083;51.038;7.012;2023-05-23T03:11:26;106650.34;;;17.63;100.00
19845;BME280;10083;51.038;7.012;2023-05-23T03:13:56;106687.28;;;17.59;100.00
19845;BME280;10083;51.038;7.012;2023-05-23T03:16:23;106747.47;;;17.72;100.00
19845;BME280;10083;51.038;7.012;2023-05-23T03:18:50;106771.09;;;17.95;100.00
19845;BME280;10083;51.038;7.012;2023-05-23T03:21:28;106674.97;;;17.68;100.00
19845;BME280;10083;51.038;7.012;2023-05-23T03:23:55;106691.47;;;17.94;100.00
19845;BME280;10083;51.038;7.012;2023-05-23T03:26:32;106613.88;;;17.77;100.00
19845;BME280;10083;51.038;7.012;2023-05-23T03:28:59;106626.31;;;17.72;100.00
19845;BME280;10083;51.038;7.012;2023-05-23T03:31:27;106645.38;;;17.74;100.00
19845;BME280;10083;51.038;7.012;2023-05-23T03:33:54;106688.88;;;17.97;100.00
19845;BME280;10083;51.038;7.012;2023-05-23T03:36:22;106632.25;;;17.62;100.00
19845;BME280;10083;51.038;7.012;2023-05-23T03:38:54;106738.50;;;17.53;100.00
19845;BME280;10083;51.038;7.012;2023-05-23T03:41:28;106885.19;;;17.39;100.00
19845;BME280;10083;51.038;7.012;2023-05-23T03:43:55;107082.59;;;17.28;100.00
19845;BME280;10083;51.038;7.012;2023-05-23T03:46:23;107298.31;;;17.39;100.00
19845;BME280;10083;51.038;7.012;2023-05-23T03:48:50;107415.56;;;17.19;100.00
19845;BME280;10083;51.038;7.012;2023-05-23T03:51:19;107668.09;;;17.25;100.00
19845;BME280;10083;51.038;7.012;2023-05-23T03:53:47;107835.81;;;17.19;100.00
19845;BME280;10083;51.038;7.012;2023-05-23T03:56:31;107953.78;;;17.12;100.00
19845;BME280;10083;51.038;7.012;2023-05-23T03:58:58;108115.53;;;17.25;100.00
19845;BME280;10083;51.038;7.012;2023-05-23T04:01:28;108195.09;;;17.39;100.00
19845;BME280;10083;51.038;7.012;2023-05-23T04:03:55;108219.81;;;17.30;100.00
19845;BME280;10083;51.038;7.012;2023-05-23T04:06:30;108256.09;;;17.32;100.00
19845;BME280;10083;51.038;7.012;2023-05-23T04:08:58;108271.03;;;17.26;100.00
19845;BME280;10083;51.038;7.012;2023-05-23T04:12:04;108272.69;;;17.24;100.00
19845;BME280;10083;51.038;7.012;2023-05-23T04:14:33;108274.16;;;17.32;100.00
19845;BME280;10083;51.038;7.012;2023-05-23T04:17:04;108242.34;;;17.42;100.00
19845;BME280;10083;51.038;7.012;2023-05-23T04:19:33;108148.88;;;17.37;100.00
19845;BME280;10083;51.038;7.012;2023-05-23T04:22:02;108058.84;;;17.43;100.00
19845;BME280;10083;51.038;7.012;2023-05-23T04:24:29;107934.22;;;17.31;100.00
19845;BME280;10083;51.038;7.012;2023-05-23T04:27:12;107863.25;;;17.38;100.00
19845;BME280;10083;51.038;7.012;2023-05-23T04:29:41;107798.16;;;17.38;100.00
19845;BME280;10083;51.038;7.012;2023-05-23T04:32:08;107740.00;;;17.33;100.00
19845;BME280;10083;51.038;7.012;2023-05-23T04:34:35;107733.19;;;17.40;100.00
19845;BME280;10083;51.038;7.012;2023-05-23T04:37:05;107688.56;;;17.35;100.00
19845;BME280;10083;51.038;7.012;2023-05-23T04:39:34;107653.03;;;17.30;100.00
19845;BME280;10083;51.038;7.012;2023-05-23T04:42:43;107632.06;;;17.28;100.00
19845;BME280;10083;51.038;7.012;2023-05-23T04:45:26;107674.34;;;17.24;100.00
19845;BME280;10083;51.038;7.012;2023-05-23T04:48:09;107730.34;;;17.38;100.00
19845;BME280;10083;51.038;7.012;2023-05-23T04:50:40;107813.97;;;17.45;100.00
19845;BME280;10083;51.038;7.012;2023-05-23T04:53:08;107810.00;;;17.11;100.00
19845;BME280;10083;51.038;7.012;2023-05-23T04:55:36;107901.22;;;17.10;100.00
19845;BME280;10083;51.038;7.012;2023-05-23T04:58:08;108012.09;;;17.06;100.00
19845;BME280;10083;51.038;7.012;2023-05-23T05:00:37;108173.41;;;17.26;100.00
19845;BME280;10083;51.038;7.012;2023-05-23T05:03:18;108329.16;;;17.42;100.00
19845;BME280;10083;51.038;7.012;2023-05-23T05:05:46;108383.47;;;17.17;100.00
19845;BME280;10083;51.038;7.012;2023-05-23T05:08:28;108419.88;;;16.96;100.00
19845;BME280;10083;51.038;7.012;2023-05-23T05:10:56;108519.31;;;17.09;100.00
19845;BME280;10083;51.038;7.012;2023-05-23T05:13:36;108614.31;;;17.22;100.00
19845;BME280;10083;51.038;7.012;2023-05-23T05:16:04;108674.78;;;17.21;100.00
19845;BME280;10083;51.038;7.012;2023-05-23T05:18:31;108680.22;;;17.21;100.00
19845;BME280;10083;51.038;7.012;2023-05-23T05:20:58;108701.88;;;17.44;100.00
19845;BME280;10083;51.038;7.012;2023-05-23T05:23:25;108582.78;;;17.36;100.00
19845;BME280;10083;51.038;7.012;2023-05-23T05:25:54;108539.66;;;17.27;100.00
19845;BME280;10083;51.038;7.012;2023-05-23T05:28:22;108521.88;;;17.44;100.00
19845;BME280;10083;51.038;7.012;2023-05-23T05:30:52;108442.84;;;17.26;100.00
19845;BME280;10083;51.038;7.012;2023-05-23T05:33:21;108392.81;;;17.09;100.00
19845;BME280;10083;51.038;7.012;2023-05-23T05:35:55;108430.09;;;17.25;100.00
19845;BME280;10083;51.038;7.012;2023-05-23T05:38:23;108435.97;;;17.31;100.00
19845;BME280;10083;51.038;7.012;2023-05-23T05:40:50;108395.66;;;17.24;100.00
19845;BME280;10083;51.038;7.012;2023-05-23T05:43:24;108401.50;;;17.17;100.00
19845;BME280;10083;51.038;7.012;2023-05-23T05:45:53;108453.56;;;17.25;100.00
19845;BME280;10083;51.038;7.012;2023-05-23T05:48:30;108450.72;;;17.23;100.00
19845;BME280;10083;51.038;7.012;2023-05-23T05:51:02;108478.69;;;17.22;100.00
19845;BME280;10083;51.038;7.012;2023-05-23T05:53:31;108479.25;;;17.05;100.00
19845;BME280;10083;51.038;7.012;2023-05-23T05:55:59;108606.50;;;17.15;100.00
19845;BME280;10083;51.038;7.012;2023-05-23T05:58:33;108670.66;;;16.91;100.00
19845;BME280;10083;51.038;7.012;2023-05-23T06:01:04;108774.03;;;16.96;100.00
19845;BME280;10083;51.038;7.012;2023-05-23T06:03:33;108894.22;;;17.18;100.00
19845;BME280;10083;51.038;7.012;2023-05-23T06:06:00;108907.03;;;17.09;100.00
19845;BME280;10083;51.038;7.012;2023-05-23T06:08:27;108983.97;;;17.21;100.00
19845;BME280;10083;51.038;7.012;2023-05-23T06:10:54;109014.78;;;17.33;100.00
19845;BME280;10083;51.038;7.012;2023-05-23T06:13:25;109004.31;;;17.38;100.00
19845;BME280;10083;51.038;7.012;2023-05-23T06:15:52;108903.41;;;17.20;100.00
19845;BME280;10083;51.038;7.012;2023-05-23T06:18:21;108922.56;;;17.33;100.00
19845;BME280;10083;51.038;7.012;2023-05-23T06:20:50;108917.22;;;17.23;100.00
19845;BME280;10083;51.038;7.012;2023-05-23T06:23:19;108910.16;;;17.25;100.00
19845;BME280;10083;51.038;7.012;2023-05-23T06:25:49;108915.06;;;17.19;100.00
19845;BME280;10083;51.038;7.012;2023-05-23T06:28:16;108927.00;;;16.88;100.00
19845;BME280;10083;51.038;7.012;2023-05-23T06:30:50;109021.88;;;16.88;100.00
19845;BME280;10083;51.038;7.012;2023-05-23T06:33:17;109172.34;;;17.14;100.00
19845;BME280;10083;51.038;7.012;2023-05-23T06:35:45;109164.53;;;16.97;100.00
19845;BME280;10083;51.038;7.012;2023-05-23T06:38:12;109268.09;;;17.13;100.00
19845;BME280;10083;51.038;7.012;2023-05-23T06:40:47;109240.44;;;17.07;100.00
19845;BME280;10083;51.038;7.012;2023-05-23T06:43:14;109280.97;;;17.16;100.00
19845;BME280;10083;51.038;7.012;2023-05-23T06:45:50;109264.69;;;17.16;100.00
19845;BME280;10083;51.038;7.012;2023-05-23T06:48:19;109246.25;;;17.22;100.00
19845;BME280;10083;51.038;7.012;2023-05-23T06:50:49;109212.19;;;17.26;100.00
19845;BME280;10083;51.038;7.012;2023-05-23T06:53:17;109177.88;;;17.26;100.00
19845;BME280;10083;51.038;7.012;2023-05-23T06:55:45;109146.19;;;17.37;100.00
19845;BME280;10083;51.038;7.012;2023-05-23T06:58:21;109029.06;;;17.31;100.00
19845;BME280;10083;51.038;7.012;2023-05-23T07:00:50;108920.72;;;17.10;100.00
19845;BME280;10083;51.038;7.012;2023-05-23T07:03:23;108908.97;;;17.22;100.00
19845;BME280;10083;51.038;7.012;2023-05-23T07:05:51;108881.28;;;17.37;100.00
19845;BME280;10083;51.038;7.012;2023-05-23T07:08:28;108819.00;;;17.50;100.00
19845;BME280;10083;51.038;7.012;2023-05-23T07:11:00;108758.25;;;17.83;100.00
19845;BME280;10083;51.038;7.012;2023-05-23T07:13:37;108602.78;;;18.24;100.00
19845;BME280;10083;51.038;7.012;2023-05-23T07:16:05;108217.41;;;17.87;100.00
19845;BME280;10083;51.038;7.012;2023-05-23T07:18:37;107927.03;;;17.89;100.00
19845;BME280;10083;51.038;7.012;2023-05-23T07:21:05;107658.81;;;17.82;100.00
19845;BME280;10083;51.038;7.012;2023-05-23T07:23:35;107432.66;;;17.65;100.00
19845;BME280;10083;51.038;7.012;2023-05-23T07:26:02;107365.34;;;17.92;100.00
19845;BME280;10083;51.038;7.012;2023-05-23T07:28:44;107123.59;;;17.70;100.00
19845;BME280;10083;51.038;7.012;2023-05-23T07:31:11;107022.38;;;17.90;100.00
19845;BME280;10083;51.038;7.012;2023-05-23T07:33:39;106856.66;;;17.66;100.00
19845;BME280;10083;51.038;7.012;2023-05-23T07:36:10;106716.59;;;17.68;100.00
19845;BME280;10083;51.038;7.012;2023-05-23T07:38:37;106643.53;;;17.73;100.00
19845;BME280;10083;51.038;7.012;2023-05-23T07:41:04;106504.56;;;17.57;100.00
19845;BME280;10083;51.038;7.012;2023-05-23T07:43:34;106450.13;;;17.53;100.00
19845;BME280;10083;51.038;7.012;2023-05-23T07:46:02;106449.31;;;17.78;100.00
19845;BME280;10083;51.038;7.012;2023-05-23T07:48:29;106422.97;;;17.75;100.00
19845;BME280;10083;51.038;7.012;2023-05-23T07:51:03;106382.25;;;17.74;100.00
19845;BME280;10083;51.038;7.012;2023-05-23T07:53:32;106330.78;;;17.77;100.00
19845;BME280;10083;51.038;7.012;2023-05-23T07:56:08;106299.56;;;17.88;100.00
19845;BME280;10083;51.038;7.012;2023-05-23T07:58:37;106247.19;;;17.90;100.00
19845;BME280;10083;51.038;7.012;2023-05-23T08:01:10;106193.91;;;17.92;100.00
19845;BME280;10083;51.038;7.012;2023-05-23T08:03:56;106099.75;;;17.63;100.00
19845;BME280;10083;51.038;7.012;2023-05-23T08:06:30;106126.41;;;17.76;100.00
19845;BME280;10083;51.038;7.012;2023-05-23T08:09:11;106099.34;;;17.78;100.00
19845;BME280;10083;51.038;7.012;2023-05-23T08:11:45;106039.72;;;17.52;100.00
19845;BME280;10083;51.038;7.012;2023-05-23T08:14:12;106112.31;;;17.59;100.00
19845;BME280;10083;51.038;7.012;2023-05-23T08:16:50;106148.72;;;17.68;100.00
19845;BME280;10083;51.038;7.012;2023-05-23T08:19:22;106088.59;;;17.27;100.00
19845;BME280;10083;51.038;7.012;2023-05-23T08:21:50;106127.09;;;17.18;100.00
19845;BME280;10083;51.038;7.012;2023-05-23T08:24:22;106230.31;;;17.48;100.00
19845;BME280;10083;51.038;7.012;2023-05-23T08:26:52;106173.56;;;17.29;100.00
19845;BME280;10083;51.038;7.012;2023-05-23T08:29:20;106195.81;;;17.44;100.00
19845;BME280;10083;51.038;7.012;2023-05-23T08:31:49;106192.03;;;17.41;100.00
19845;BME280;10083;51.038;7.012;2023-05-23T08:34:16;106167.03;;;17.49;100.00
19845;BME280;10083;51.038;7.012;2023-05-23T08:36:48;106143.56;;;17.50;100.00
19845;BME280;10083;51.038;7.012;2023-05-23T08:39:19;106157.25;;;17.53;100.00
19845;BME280;10083;51.038;7.012;2023-05-23T08:42:07;106161.44;;;17.69;100.00
19845;BME280;10083;51.038;7.012;2023-05-23T08:44:42;106102.69;;;17.69;100.00
19845;BME280;10083;51.038;7.012;2023-05-23T08:47:09;106042.31;;;17.76;100.00
19845;BME280;10083;51.038;7.012;2023-05-23T08:50:00;106038.47;;;17.96;100.00
19845;BME280;10083;51.038;7.012;2023-05-23T08:52:29;106038.69;;;18.04;100.00
19845;BME280;10083;51.038;7.012;2023-05-23T08:55:00;105986.78;;;17.93;100.00
19845;BME280;10083;51.038;7.012;2023-05-23T08:57:32;105950.38;;;17.85;100.00
19845;BME280;10083;51.038;7.012;2023-05-23T09:00:14;105807.13;;;17.72;100.00
19845;BME280;10083;51.038;7.012;2023-05-23T09:02:50;105696.22;;;17.83;100.00
19845;BME280;10083;51.038;7.012;2023-05-23T09:05:38;105605.88;;;17.87;100.00
19845;BME280;10083;51.038;7.012;2023-05-23T09:08:21;105444.28;;;17.59;100.00
19845;BME280;10083;51.038;7.012;2023-05-23T09:10:53;105419.53;;;17.83;100.00
19845;BME280;10083;51.038;7.012;2023-05-23T09:13:28;105333.84;;;17.52;100.00
19845;BME280;10083;51.038;7.012;2023-05-23T09:16:01;105386.63;;;17.66;100.00
19845;BME280;10083;51.038;7.012;2023-05-23T09:18:41;105362.03;;;17.58;100.00
19845;BME280;10083;51.038;7.012;2023-05-23T09:21:12;105388.84;;;17.46;100.00
19845;BME280;10083;51.038;7.012;2023-05-23T09:23:49;105496.78;;;17.62;100.00
19845;BME280;10083;51.038;7.012;2023-05-23T09:26:18;105480.38;;;17.56;100.00
19845;BME280;10083;51.038;7.012;2023-05-23T09:28:47;105492.72;;;17.44;100.00
19845;BME280;10083;51.038;7.012;2023-05-23T09:31:14;105568.75;;;17.50;100.00
19845;BME280;10083;51.038;7.012;2023-05-23T09:33:44;105530.31;;;17.30;100.00
19845;BME280;10083;51.038;7.012;2023-05-23T09:36:15;105566.59;;;17.37;100.00
19845;BME280;10083;51.038;7.012;2023-05-23T09:38:44;105586.78;;;17.48;100.00
19845;BME280;10083;51.038;7.012;2023-05-23T09:41:14;105586.13;;;17.22;100.00
19845;BME280;10083;51.038;7.012;2023-05-23T09:43:50;105611.88;;;16.75;100.00
19845;BME280;10083;51.038;7.012;2023-05-23T09:46:19;105786.16;;;17.05;100.00
19845;BME280;10083;51.038;7.012;2023-05-23T09:48:47;105810.75;;;16.83;100.00
19845;BME280;10083;51.038;7.012;2023-05-23T09:51:18;105863.41;;;16.93;100.00
19845;BME280;10083;51.038;7.012;2023-05-23T09:53:57;105929.63;;;16.76;100.00
19845;BME280;10083;51.038;7.012;2023-05-23T09:56:25;105981.06;;;16.50;100.00
19845;BME280;10083;51.038;7.012;2023-05-23T09:58:57;106094.41;;;16.89;100.00
19845;BME280;10083;51.038;7.012;2023-05-23T10:01:26;106114.91;;;17.06;100.00
19845;BME280;10083;51.038;7.012;2023-05-23T10:03:57;106066.13;;;17.06;100.00
19845;BME280;10083;51.038;7.012;2023-05-23T10:06:26;106011.31;;;17.14;100.00
19845;BME280;10083;51.038;7.012;2023-05-23T10:09:00;106055.75;;;18.00;100.00
19845;BME280;10083;51.038;7.012;2023-05-23T10:14:34;105628.38;;;19.49;100.00
19845;BME280;10083;51.038;7.012;2023-05-23T10:17:10;105156.28;;;19.77;100.00
19845;BME280;10083;51.038;7.012;2023-05-23T10:19:43;104712.81;;;19.81;100.00
19845;BME280;10083;51.038;7.012;2023-05-23T10:22:11;104436.28;;;19.09;100.00
19845;BME280;10083;51.038;7.012;2023-05-23T10:24:40;104409.56;;;20.58;100.00
19845;BME280;10083;51.038;7.012;2023-05-23T10:27:10;104201.19;;;21.00;100.00
19845;BME280;10083;51.038;7.012;2023-05-23T10:29:39;103905.38;;;20.11;100.00
19845;BME280;10083;51.038;7.012;2023-05-23T10:32:40;103873.03;;;20.54;100.00
19845;BME280;10083;51.038;7.012;2023-05-23T10:35:16;103886.31;;;21.79;100.00
19845;BME280;10083;51.038;7.012;2023-05-23T10:37:55;103823.53;;;21.35;100.00
19845;BME280;10083;51.038;7.012;2023-05-23T10:40:31;103732.53;;;20.44;100.00
19845;BME280;10083;51.038;7.012;2023-05-23T10:43:03;103735.91;;;20.00;100.00
19845;BME280;10083;51.038;7.012;2023-05-23T10:45:39;103772.47;;;18.98;100.00
19845;BME280;10083;51.038;7.012;2023-05-23T10:48:21;103856.13;;;18.52;100.00
19845;BME280;10083;51.038;7.012;2023-05-23T10:51:02;103929.59;;;18.11;100.00
19845;BME280;10083;51.038;7.012;2023-05-23T10:53:31;104011.00;;;17.53;100.00
19845;BME280;10083;51.038;7.012;2023-05-23T10:56:00;104127.56;;;17.46;100.00
19845;BME280;10083;51.038;7.012;2023-05-23T10:58:35;104267.81;;;18.00;100.00
19845;BME280;10083;51.038;7.012;2023-05-23T11:01:08;104336.53;;;18.11;100.00
19845;BME280;10083;51.038;7.012;2023-05-23T11:03:49;104285.66;;;17.48;100.00
19845;BME280;10083;51.038;7.012;2023-05-23T11:06:28;104344.66;;;17.99;100.00
19845;BME280;10083;51.038;7.012;2023-05-23T11:09:02;104312.72;;;17.45;100.00
19845;BME280;10083;51.038;7.012;2023-05-23T11:11:59;104400.63;;;17.85;100.00
19845;BME280;10083;51.038;7.012;2023-05-23T11:14:31;104408.69;;;17.70;100.00
19845;BME280;10083;51.038;7.012;2023-05-23T11:17:14;104368.91;;;17.66;100.00
19845;BME280;10083;51.038;7.012;2023-05-23T11:19:55;104335.28;;;17.36;100.00
19845;BME280;10083;51.038;7.012;2023-05-23T11:22:26;104336.97;;;17.16;100.00
19845;BME280;10083;51.038;7.012;2023-05-23T11:25:02;104337.53;;;16.72;100.00
19845;BME280;10083;51.038;7.012;2023-05-23T11:27:33;104423.94;;;16.56;100.00
19845;BME280;10083;51.038;7.012;2023-05-23T11:30:06;104533.97;;;16.52;100.00
19845;BME280;10083;51.038;7.012;2023-05-23T11:32:35;104602.22;;;16.33;100.00
19845;BME280;10083;51.038;7.012;2023-05-23T11:35:15;104707.88;;;16.99;100.00
19845;BME280;10083;51.038;7.012;2023-05-23T11:37:43;104730.81;;;17.26;100.00
19845;BME280;10083;51.038;7.012;2023-05-23T11:40:28;104675.31;;;17.69;100.00
19845;BME280;10083;51.038;7.012;2023-05-23T11:42:56;104588.16;;;18.42;100.00
19845;BME280;10083;51.038;7.012;2023-05-23T11:45:24;104417.25;;;18.95;100.00
19845;BME280;10083;51.038;7.012;2023-05-23T11:47:52;104178.25;;;18.67;100.00
19845;BME280;10083;51.038;7.012;2023-05-23T11:50:33;104094.06;;;20.11;100.00
19845;BME280;10083;51.038;7.012;2023-05-23T11:53:00;104001.81;;;20.65;100.00
19845;BME280;10083;51.038;7.012;2023-05-23T11:55:30;103928.09;;;20.75;100.00
19845;BME280;10083;51.038;7.012;2023-05-23T11:57:57;103949.75;;;21.43;100.00
19845;BME280;10083;51.038;7.012;2023-05-23T12:00:42;103869.06;;;20.76;100.00
19845;BME280;10083;51.038;7.012;2023-05-23T12:03:11;103871.41;;;21.00;100.00
19845;BME280;10083;51.038;7.012;2023-05-23T12:05:44;103853.31;;;20.37;100.00
19845;BME280;10083;51.038;7.012;2023-05-23T12:08:12;103819.75;;;19.69;100.00
19845;BME280;10083;51.038;7.012;2023-05-23T12:10:51;103864.31;;;19.57;100.00
19845;BME280;10083;51.038;7.012;2023-05-23T12:13:19;103863.56;;;19.40;100.00
19845;BME280;10083;51.038;7.012;2023-05-23T12:15:53;103884.81;;;18.94;100.00
19845;BME280;10083;51.038;7.012;2023-05-23T12:18:22;103896.78;;;18.70;100.00
19845;BME280;10083;51.038;7.012;2023-05-23T12:20:50;103926.16;;;19.31;100.00
19845;BME280;10083;51.038;7.012;2023-05-23T12:23:18;103962.25;;;19.51;100.00
19845;BME280;10083;51.038;7.012;2023-05-23T12:25:49;103930.94;;;18.98;100.00
19845;BME280;10083;51.038;7.012;2023-05-23T12:28:19;103955.34;;;19.09;100.00
19845;BME280;10083;51.038;7.012;2023-05-23T12:30:46;103941.69;;;19.15;100.00
19845;BME280;10083;51.038;7.012;2023-05-23T12:33:17;103929.47;;;18.43;100.00
19845;BME280;10083;51.038;7.012;2023-05-23T12:35:46;103948.41;;;18.61;100.00
19845;BME280;10083;51.038;7.012;2023-05-23T12:38:27;103960.94;;;18.80;100.00
19845;BME280;10083;51.038;7.012;2023-05-23T12:41:07;103954.75;;;18.51;100.00
19845;BME280;10083;51.038;7.012;2023-05-23T12:43:36;103930.56;;;18.05;100.00
19845;BME280;10083;51.038;7.012;2023-05-23T12:46:05;103967.38;;;18.64;100.00
19845;BME280;10083;51.038;7.012;2023-05-23T12:48:32;103954.84;;;18.30;100.00
19845;BME280;10083;51.038;7.012;2023-05-23T12:51:02;103972.88;;;18.55;100.00
19845;BME280;10083;51.038;7.012;2023-05-23T12:53:29;103957.50;;;18.43;100.00
19845;BME280;10083;51.038;7.012;2023-05-23T12:55:57;104011.63;;;18.86;100.00
19845;BME280;10083;51.038;7.012;2023-05-23T12:58:23;104011.66;;;18.81;100.00
19845;BME280;10083;51.038;7.012;2023-05-23T13:01:06;104005.38;;;18.69;100.00
19845;BME280;10083;51.038;7.012;2023-05-23T13:03:33;104019.66;;;19.03;100.00
19845;BME280;10083;51.038;7.012;2023-05-23T13:06:02;104017.19;;;18.62;100.00